Time;durP1;ratioP1;P1;durP2;ratioP2;P2;SDS_P1;SDS_P2;PMS_P1;PMS_P2;Temp;Humidity;BMP_temperature;BMP_pressure;BME280_temperature;BME280_humidity;BME280_pressure;Samples;Min_cycle;Max_cycle;Signal;HPM_P1;HPM_P2
2022/08/15 00:00:25;;;;;;;9.00;8.05;;;;;;;;;;5051916;28;20498;-85
2022/08/15 00:02:53;;;;;;;9.48;8.57;;;;;;;;;;5056438;28;20104;-86
2022/08/15 00:05:28;;;;;;;8.75;8.05;;;;;;;;;;5054538;28;20521;-85
2022/08/15 00:07:56;;;;;;;9.00;8.23;;;;;;;;;;5055937;28;20522;-84
2022/08/15 00:10:23;;;;;;;8.48;7.68;;;;;;;;;;5056704;28;20056;-85
2022/08/15 00:13:22;;;;;;;9.88;8.18;;;;;;;;;;5054410;28;20055;-85
2022/08/15 00:15:51;;;;;;;8.77;7.88;;;;;;;;;;5057296;28;20136;-86
2022/08/15 00:18:19;;;;;;;8.27;7.47;;;;;;;;;;5057672;28;20049;-84
2022/08/15 00:20:47;;;;;;;9.30;8.35;;;;;;;;;;5057912;28;20060;-85
2022/08/15 00:23:17;;;;;;;8.70;7.55;;;;;;;;;;5057072;28;20517;-85
2022/08/15 00:25:52;;;;;;;9.73;8.07;;;;;;;;;;5057784;28;20050;-85
2022/08/15 00:28:25;;;;;;;9.32;8.15;;;;;;;;;;5057820;28;20061;-85
2022/08/15 00:31:08;;;;;;;8.18;7.40;;;;;;;;;;5056808;28;20064;-85
2022/08/15 00:33:37;;;;;;;8.93;8.10;;;;;;;;;;5057474;28;20487;-85
2022/08/15 00:36:07;;;;;;;9.55;8.75;;;;;;;;;;5057947;28;20045;-85
2022/08/15 00:38:54;;;;;;;8.98;8.07;;;;;;;;;;5042233;28;20132;-86
2022/08/15 00:41:40;;;;;;;9.02;8.32;;;;;;;;;;5056400;28;20080;-85
2022/08/15 00:44:14;;;;;;;8.88;7.97;;;;;;;;;;5056827;28;20053;-85
2022/08/15 00:46:43;;;;;;;9.88;8.75;;;;;;;;;;5057764;28;20056;-86
2022/08/15 00:49:12;;;;;;;14.40;8.63;;;;;;;;;;5058523;28;20060;-86
2022/08/15 00:51:51;;;;;;;9.75;8.43;;;;;;;;;;5058881;28;20478;-87
2022/08/15 00:54:21;;;;;;;9.57;8.73;;;;;;;;;;5060308;28;20050;-86
2022/08/15 00:57:11;;;;;;;9.95;9.13;;;;;;;;;;5060019;28;20128;-86
2022/08/15 00:59:46;;;;;;;9.10;8.40;;;;;;;;;;5065508;28;20449;-86
2022/08/15 01:02:24;;;;;;;9.20;8.35;;;;;;;;;;5064144;28;20046;-87
2022/08/15 01:05:05;;;;;;;9.63;8.70;;;;;;;;;;5064294;28;20079;-86
2022/08/15 01:07:43;;;;;;;9.05;8.10;;;;;;;;;;5075242;28;20057;-86
2022/08/15 01:10:12;;;;;;;9.30;8.50;;;;;;;;;;5069687;28;20048;-85
2022/08/15 01:12:50;;;;;;;9.27;8.52;;;;;;;;;;5057611;28;20084;-85
2022/08/15 01:15:19;;;;;;;10.82;8.80;;;;;;;;;;5044161;28;20532;-85
2022/08/15 01:18:06;;;;;;;10.00;9.10;;;;;;;;;;5056770;28;20045;-85
2022/08/15 01:20:55;;;;;;;9.63;8.60;;;;;;;;;;5044101;28;20068;-85
2022/08/15 01:23:42;;;;;;;9.98;8.18;;;;;;;;;;5058841;28;20461;-85
2022/08/15 01:26:23;;;;;;;10.35;9.18;;;;;;;;;;5038694;28;20049;-86
2022/08/15 01:29:09;;;;;;;9.15;8.38;;;;;;;;;;5044045;28;20053;-85
2022/08/15 01:31:36;;;;;;;9.95;9.00;;;;;;;;;;5043208;28;20053;-85
2022/08/15 01:34:15;;;;;;;9.60;8.35;;;;;;;;;;5057847;28;20564;-85
2022/08/15 01:36:44;;;;;;;9.73;8.48;;;;;;;;;;5059156;28;20141;-86
2022/08/15 01:39:24;;;;;;;13.45;9.57;;;;;;;;;;5059435;28;20557;-85
2022/08/15 01:42:00;;;;;;;10.07;9.07;;;;;;;;;;5059486;28;20052;-85
2022/08/15 01:44:35;;;;;;;9.77;8.77;;;;;;;;;;5059638;28;20042;-85
2022/08/15 01:47:22;;;;;;;9.68;8.77;;;;;;;;;;5057652;28;20533;-86
2022/08/15 01:49:55;;;;;;;11.82;9.60;;;;;;;;;;5058923;28;20113;-85
2022/08/15 01:52:29;;;;;;;10.10;8.95;;;;;;;;;;5060162;28;20049;-85
2022/08/15 01:55:17;;;;;;;10.95;8.63;;;;;;;;;;5046475;28;20510;-84
2022/08/15 01:57:47;;;;;;;10.60;9.27;;;;;;;;;;5062264;28;20053;-85
2022/08/15 02:00:17;;;;;;;10.88;8.43;;;;;;;;;;5048825;28;20050;-85
2022/08/15 02:02:45;;;;;;;10.77;9.57;;;;;;;;;;5044099;28;20045;-86
2022/08/15 02:05:13;;;;;;;10.50;9.52;;;;;;;;;;5055574;28;20041;-86
2022/08/15 02:07:41;;;;;;;10.05;9.15;;;;;;;;;;5055365;28;20080;-85
2022/08/15 02:10:26;;;;;;;13.50;9.32;;;;;;;;;;5040420;28;20453;-85
2022/08/15 02:12:54;;;;;;;11.43;9.80;;;;;;;;;;5055708;28;20141;-85
2022/08/15 02:15:31;;;;;;;14.00;9.93;;;;;;;;;;5054988;28;20054;-86
2022/08/15 02:17:59;;;;;;;11.20;9.85;;;;;;;;;;5056154;28;20053;-86
2022/08/15 02:20:31;;;;;;;10.65;9.65;;;;;;;;;;5055717;28;20049;-85
2022/08/15 02:23:06;;;;;;;12.50;9.02;;;;;;;;;;5055496;28;20053;-85
2022/08/15 02:25:43;;;;;;;9.15;8.32;;;;;;;;;;5056375;28;20119;-85
2022/08/15 02:28:10;;;;;;;10.73;9.32;;;;;;;;;;5057832;28;20081;-85
2022/08/15 02:30:57;;;;;;;10.77;9.77;;;;;;;;;;5054377;28;20164;-86
2022/08/15 02:33:27;;;;;;;11.32;10.00;;;;;;;;;;5057029;28;20054;-85
2022/08/15 02:35:55;;;;;;;10.80;9.80;;;;;;;;;;5057973;28;20045;-85
2022/08/15 02:38:22;;;;;;;10.55;9.52;;;;;;;;;;5058804;28;20049;-85
2022/08/15 02:41:09;;;;;;;13.02;9.88;;;;;;;;;;5054529;28;20514;-86
2022/08/15 02:43:40;;;;;;;10.27;9.07;;;;;;;;;;5058648;28;20073;-84
2022/08/15 02:46:08;;;;;;;11.00;9.88;;;;;;;;;;5057531;28;20064;-81
2022/08/15 02:48:55;;;;;;;11.27;10.18;;;;;;;;;;5054427;28;20136;-82
2022/08/15 02:51:24;;;;;;;11.75;10.65;;;;;;;;;;5057415;28;20055;-81
2022/08/15 02:53:52;;;;;;;10.15;9.25;;;;;;;;;;5055877;28;20065;-81
2022/08/15 02:56:22;;;;;;;11.63;10.43;;;;;;;;;;5043567;28;20052;-81
2022/08/15 02:58:57;;;;;;;11.05;9.93;;;;;;;;;;5043823;28;20486;-81
2022/08/15 03:01:26;;;;;;;12.02;10.70;;;;;;;;;;5059631;28;20072;-81
2022/08/15 03:04:00;;;;;;;10.98;9.73;;;;;;;;;;5059058;28;20446;-82
2022/08/15 03:06:47;;;;;;;12.35;10.45;;;;;;;;;;5058431;28;20072;-82
2022/08/15 03:09:15;;;;;;;15.07;10.30;;;;;;;;;;5061531;28;20100;-82
2022/08/15 03:11:44;;;;;;;12.07;10.80;;;;;;;;;;5046124;28;20050;-82
2022/08/15 03:14:23;;;;;;;14.50;10.90;;;;;;;;;;5060791;28;20053;-81
2022/08/15 03:17:01;;;;;;;12.43;10.68;;;;;;;;;;5061202;28;20049;-81
2022/08/15 03:19:33;;;;;;;11.52;10.35;;;;;;;;;;5062613;28;20434;-82
2022/08/15 03:22:05;;;;;;;18.40;10.77;;;;;;;;;;5063373;28;20095;-82
2022/08/15 03:24:32;;;;;;;14.82;9.77;;;;;;;;;;5050838;28;20047;-81
2022/08/15 03:27:00;;;;;;;26.77;11.32;;;;;;;;;;5067042;28;20049;-81
2022/08/15 03:29:27;;;;;;;17.08;11.15;;;;;;;;;;5052609;28;20512;-81
2022/08/15 03:32:09;;;;;;;11.88;10.68;;;;;;;;;;5052140;28;20049;-82
2022/08/15 03:34:40;;;;;;;13.20;10.93;;;;;;;;;;5052490;28;20057;-81
2022/08/15 03:37:07;;;;;;;11.18;9.98;;;;;;;;;;5052981;28;20049;-81
2022/08/15 03:39:34;;;;;;;18.08;10.63;;;;;;;;;;5037122;28;20103;-81
2022/08/15 03:42:07;;;;;;;14.55;10.52;;;;;;;;;;5052481;28;20140;-81
2022/08/15 03:44:45;;;;;;;11.93;10.05;;;;;;;;;;5051028;28;20046;-83
2022/08/15 03:47:16;;;;;;;12.98;11.18;;;;;;;;;;5051947;28;20132;-81
2022/08/15 03:49:43;;;;;;;11.80;10.60;;;;;;;;;;5052863;28;20049;-81
2022/08/15 03:52:32;;;;;;;11.68;10.50;;;;;;;;;;5049899;28;20116;-81
2022/08/15 03:55:05;;;;;;;17.50;12.52;;;;;;;;;;5037805;28;20430;-82
2022/08/15 03:57:44;;;;;;;19.98;15.00;;;;;;;;;;5037697;28;20053;-81
2022/08/15 04:00:32;;;;;;;17.15;15.45;;;;;;;;;;5049760;28;20057;-81
2022/08/15 04:03:06;;;;;;;17.17;13.68;;;;;;;;;;5052756;28;20111;-81
2022/08/15 04:05:35;;;;;;;13.00;11.70;;;;;;;;;;5038307;28;20049;-82
2022/08/15 04:08:07;;;;;;;12.17;11.07;;;;;;;;;;5050931;28;20051;-82
2022/08/15 04:10:55;;;;;;;11.90;10.80;;;;;;;;;;5050198;28;20141;-82
2022/08/15 04:13:24;;;;;;;12.48;11.18;;;;;;;;;;5052733;28;20057;-81
2022/08/15 04:15:52;;;;;;;24.17;13.32;;;;;;;;;;5053169;28;20049;-81
2022/08/15 04:18:39;;;;;;;69.93;40.35;;;;;;;;;;5050273;28;20418;-81
2022/08/15 04:21:11;;;;;;;95.15;60.92;;;;;;;;;;5052976;28;20100;-81
2022/08/15 04:23:39;;;;;;;50.60;31.73;;;;;;;;;;5038336;28;20049;-81
2022/08/15 04:26:07;;;;;;;27.02;19.58;;;;;;;;;;5053128;28;20048;-81
2022/08/15 04:28:34;;;;;;;16.15;14.65;;;;;;;;;;5053131;28;20119;-81
2022/08/15 04:31:21;;;;;;;16.08;14.38;;;;;;;;;;5054028;28;20422;-81
2022/08/15 04:33:49;;;;;;;16.65;11.63;;;;;;;;;;5057224;28;20457;-81
2022/08/15 04:36:36;;;;;;;16.83;11.38;;;;;;;;;;5054580;28;20056;-81
2022/08/15 04:39:04;;;;;;;12.07;10.93;;;;;;;;;;5057073;28;20049;-82
2022/08/15 04:41:32;;;;;;;16.38;11.30;;;;;;;;;;5043359;28;20049;-81
2022/08/15 04:44:04;;;;;;;13.38;12.07;;;;;;;;;;5057048;28;20049;-81
2022/08/15 04:46:31;;;;;;;12.27;11.10;;;;;;;;;;5057457;28;20046;-81
2022/08/15 04:48:59;;;;;;;15.23;11.85;;;;;;;;;;5043862;28;20160;-81
2022/08/15 04:51:27;;;;;;;12.38;11.07;;;;;;;;;;5058092;28;20118;-81
2022/08/15 04:54:04;;;;;;;13.38;11.65;;;;;;;;;;5043732;28;20072;-81
2022/08/15 04:56:31;;;;;;;13.43;10.85;;;;;;;;;;5042972;28;20046;-82
2022/08/15 04:59:18;;;;;;;16.73;10.93;;;;;;;;;;5043714;28;20092;-81
2022/08/15 05:09:00;;;;;;;12.02;10.77;;;;;;;;;;5044739;23;20056;-94
2022/08/15 05:11:28;;;;;;;16.55;10.85;;;;;;;;;;5036075;28;20092;-94
2022/08/15 05:14:16;;;;;;;18.52;10.60;;;;;;;;;;5036270;28;20056;-95
2022/08/15 05:17:03;;;;;;;11.43;10.43;;;;;;;;;;5035710;28;20065;-94
2022/08/15 05:19:34;;;;;;;12.75;11.05;;;;;;;;;;5035548;28;20409;-93
2022/08/15 05:22:03;;;;;;;17.13;11.13;;;;;;;;;;5035541;28;20072;-94
2022/08/15 05:24:31;;;;;;;11.40;10.35;;;;;;;;;;5035671;28;20049;-94
2022/08/15 05:26:58;;;;;;;12.60;10.15;;;;;;;;;;5034165;28;20084;-94
2022/08/15 05:29:29;;;;;;;11.50;10.15;;;;;;;;;;5035342;28;20049;-93
2022/08/15 05:31:58;;;;;;;15.32;10.18;;;;;;;;;;5035190;28;20050;-94
2022/08/15 05:34:26;;;;;;;11.32;9.82;;;;;;;;;;5035793;28;20049;-94
2022/08/15 05:37:09;;;;;;;;;;;;;;;;;;5036525;28;20124;-92
2022/08/15 05:39:37;;;;;;;23.10;10.48;;;;;;;;;;5035851;28;20398;-94
2022/08/15 05:42:10;;;;;;;13.57;10.32;;;;;;;;;;5034320;28;20045;-94
2022/08/15 05:44:48;;;;;;;26.40;11.05;;;;;;;;;;5034498;28;20108;-93
2022/08/15 05:47:26;;;;;;;14.05;10.98;;;;;;;;;;5034998;28;20053;-94
2022/08/15 05:50:06;;;;;;;18.73;10.80;;;;;;;;;;5034976;28;20429;-93
2022/08/15 05:52:49;;;;;;;15.83;9.57;;;;;;;;;;5034520;28;20111;-95
2022/08/15 05:55:26;;;;;;;13.82;9.38;;;;;;;;;;5035805;28;20053;-94
2022/08/15 05:58:03;;;;;;;21.08;10.43;;;;;;;;;;5035044;28;20084;-94
2022/08/15 06:01:02;;;;;;;19.02;10.63;;;;;;;;;;5035773;28;20056;-93
2022/08/15 06:03:42;;;;;;;21.02;10.25;;;;;;;;;;5040124;28;20057;-94
2022/08/15 06:06:16;;;;;;;14.70;9.73;;;;;;;;;;5048672;28;20061;-93
2022/08/15 06:08:54;;;;;;;12.60;9.60;;;;;;;;;;5031240;28;20054;-94
2022/08/15 06:11:37;;;;;;;12.52;10.10;;;;;;;;;;5031383;28;20050;-93
2022/08/15 06:14:19;;;;;;;12.90;9.88;;;;;;;;;;5030650;28;20568;-93
2022/08/15 06:16:51;;;;;;;9.40;8.40;;;;;;;;;;5015169;28;20140;-93
2022/08/15 06:19:22;;;;;;;10.05;8.75;;;;;;;;;;5030642;28;20050;-94
2022/08/15 06:21:57;;;;;;;14.70;9.82;;;;;;;;;;5015585;28;20054;-93
2022/08/15 06:24:31;;;;;;;16.88;9.38;;;;;;;;;;5030580;28;20077;-93
2022/08/15 06:27:08;;;;;;;16.65;8.82;;;;;;;;;;5030595;28;20050;-93
2022/08/15 06:29:48;;;;;;;21.55;9.30;;;;;;;;;;5015555;28;20065;-94
2022/08/15 06:32:32;;;;;;;11.85;8.40;;;;;;;;;;5030384;28;20505;-94
2022/08/15 06:35:05;;;;;;;9.07;7.90;;;;;;;;;;5030824;28;20546;-93
2022/08/15 06:37:35;;;;;;;13.50;8.85;;;;;;;;;;5029973;28;20141;-94
2022/08/15 06:40:28;;;;;;;10.43;9.15;;;;;;;;;;5027991;28;20045;-94
2022/08/15 06:42:56;;;;;;;11.38;8.88;;;;;;;;;;5030097;28;20073;-93
2022/08/15 06:45:34;;;;;;;12.18;9.32;;;;;;;;;;5030276;28;20061;-93
2022/08/15 06:48:07;;;;;;;12.40;8.25;;;;;;;;;;5030104;28;20060;-93
2022/08/15 06:50:59;;;;;;;17.15;8.75;;;;;;;;;;5014573;28;20479;-93
2022/08/15 06:53:33;;;;;;;12.05;8.40;;;;;;;;;;5029738;28;20057;-94
2022/08/15 06:56:24;;;;;;;11.52;7.75;;;;;;;;;;5029535;28;20137;-93
2022/08/15 06:59:21;;;;;;;8.60;7.60;;;;;;;;;;5030109;28;20050;-94
2022/08/15 07:02:20;;;;;;;14.07;7.18;;;;;;;;;;5028511;28;20053;-94
2022/08/15 07:04:47;;;;;;;;;;;;;;;;;;5030735;28;20042;-93
2022/08/15 07:07:19;;;;;;;8.40;6.35;;;;;;;;;;5013628;28;19967;-93
2022/08/15 07:09:51;;;;;;;9.48;6.20;;;;;;;;;;5030537;28;20053;-92
2022/08/15 07:12:30;;;;;;;10.90;5.82;;;;;;;;;;5030772;28;20137;-92
2022/08/15 07:15:03;;;;;;;;;;;;;;;;;;5030036;28;20133;-93
2022/08/15 07:17:36;;;;;;;10.57;6.63;;;;;;;;;;5013981;28;20336;-93
2022/08/15 07:20:07;;;;;;;8.75;5.47;;;;;;;;;;5029871;28;20072;-92
2022/08/15 07:22:54;;;;;;;7.78;5.10;;;;;;;;;;5027456;28;20046;-96
2022/08/15 07:25:27;;;;;;;17.65;7.35;;;;;;;;;;5030713;28;20080;-89
2022/08/15 07:27:58;;;;;;;18.20;5.95;;;;;;;;;;5030111;28;20065;-93
2022/08/15 07:30:47;;;;;;;5.63;4.85;;;;;;;;;;5029729;28;20046;-89
2022/08/15 07:33:31;;;;;;;13.25;6.28;;;;;;;;;;5028763;28;20513;-89
2022/08/15 07:36:04;;;;;;;11.90;5.63;;;;;;;;;;5029357;28;20496;-90
2022/08/15 07:38:32;;;;;;;8.70;5.57;;;;;;;;;;5029434;28;20429;-89
2022/08/15 07:41:12;;;;;;;10.43;5.93;;;;;;;;;;5028952;28;20513;-91
2022/08/15 07:43:40;;;;;;;5.80;4.65;;;;;;;;;;5029401;28;20053;-91
2022/08/15 07:46:20;;;;;;;13.70;5.50;;;;;;;;;;5029470;28;20062;-91
2022/08/15 07:48:56;;;;;;;7.60;5.35;;;;;;;;;;5029190;28;20053;-91
2022/08/15 07:51:26;;;;;;;7.68;4.50;;;;;;;;;;5029168;28;20049;-90
2022/08/15 07:54:05;;;;;;;5.28;4.60;;;;;;;;;;5029323;28;20422;-90
2022/08/15 07:56:48;;;;;;;6.63;4.82;;;;;;;;;;5028535;28;20054;-93
2022/08/15 07:59:22;;;;;;;20.42;9.88;;;;;;;;;;5029054;28;20050;-91
2022/08/15 08:02:03;;;;;;;4.78;4.47;;;;;;;;;;5028591;28;20486;-91
2022/08/15 08:04:34;;;;;;;4.22;3.92;;;;;;;;;;5028582;28;20045;-91
2022/08/15 08:07:25;;;;;;;10.55;7.00;;;;;;;;;;5032136;28;20057;-88
2022/08/15 08:10:15;;;;;;;30.02;14.73;;;;;;;;;;5032215;28;20144;-88
2022/08/15 08:12:58;;;;;;;27.63;7.18;;;;;;;;;;5033411;28;20049;-89
2022/08/15 08:15:35;;;;;;;11.27;5.00;;;;;;;;;;5032550;28;20045;-88
2022/08/15 08:18:11;;;;;;;4.80;4.40;;;;;;;;;;5032451;28;20056;-88
2022/08/15 08:20:54;;;;;;;5.68;4.28;;;;;;;;;;5032379;28;20052;-88
2022/08/15 08:23:28;;;;;;;7.63;4.60;;;;;;;;;;5034365;28;20045;-87
2022/08/15 08:26:06;;;;;;;19.42;6.18;;;;;;;;;;5035436;28;20095;-88
2022/08/15 08:28:52;;;;;;;18.13;6.00;;;;;;;;;;5033061;28;20175;-93
2022/08/15 08:31:23;;;;;;;14.90;5.78;;;;;;;;;;5033319;28;20108;-89
2022/08/15 08:33:59;;;;;;;25.50;6.60;;;;;;;;;;5032208;28;20499;-89
2022/08/15 08:36:37;;;;;;;18.17;5.47;;;;;;;;;;5032059;28;20058;-90
2022/08/15 08:39:23;;;;;;;8.30;4.88;;;;;;;;;;5033177;28;20092;-89
2022/08/15 08:42:19;;;;;;;7.97;4.70;;;;;;;;;;5032402;28;20081;-92
2022/08/15 08:45:01;;;;;;;6.65;5.43;;;;;;;;;;5033810;28;20061;-92
2022/08/15 08:47:36;;;;;;;7.30;4.88;;;;;;;;;;5033545;28;20050;-91
2022/08/15 08:50:03;;;;;;;;;;;;;;;;;;5032375;28;20068;-91
2022/08/15 08:52:56;;;;;;;5.80;5.10;;;;;;;;;;5018908;28;20012;-90
2022/08/15 08:55:27;;;;;;;7.28;6.50;;;;;;;;;;5032284;28;20492;-91
2022/08/15 08:58:15;;;;;;;11.15;5.47;;;;;;;;;;5032034;28;20137;-88
2022/08/15 09:01:05;;;;;;;8.75;5.68;;;;;;;;;;5031929;28;20053;-91
2022/08/15 09:03:39;;;;;;;8.27;5.82;;;;;;;;;;5032248;28;20049;-90
2022/08/15 09:06:11;;;;;;;7.03;4.97;;;;;;;;;;5032011;28;20490;-92
2022/08/15 09:09:10;;;;;;;4.85;4.55;;;;;;;;;;5031638;28;20080;-90
2022/08/15 09:11:37;;;;;;;;;;;;;;;;;;5032400;28;20053;-91
2022/08/15 09:14:14;;;;;;;5.22;4.82;;;;;;;;;;5016465;28;19929;-89
2022/08/15 09:17:03;;;;;;;7.07;4.63;;;;;;;;;;5032350;28;20517;-90
2022/08/15 09:19:54;;;;;;;5.38;4.88;;;;;;;;;;5036858;28;20051;-90
2022/08/15 09:22:21;;;;;;;8.23;4.55;;;;;;;;;;5035896;28;20080;-90
2022/08/15 09:24:54;;;;;;;19.45;5.30;;;;;;;;;;5035331;28;20084;-90
2022/08/15 09:27:42;;;;;;;4.68;4.18;;;;;;;;;;5036947;28;20089;-94
2022/08/15 09:30:25;;;;;;;7.70;4.50;;;;;;;;;;5021794;28;20482;-92
2022/08/15 09:33:24;;;;;;;4.93;4.47;;;;;;;;;;5036825;28;20046;-91
2022/08/15 09:35:57;;;;;;;4.72;4.25;;;;;;;;;;5036510;28;20053;-89
2022/08/15 09:38:30;;;;;;;4.97;4.55;;;;;;;;;;5035030;28;20168;-91
2022/08/15 09:41:09;;;;;;;7.57;4.22;;;;;;;;;;5036654;28;20041;-89
2022/08/15 09:43:55;;;;;;;9.68;4.20;;;;;;;;;;5035388;28;20053;-92
2022/08/15 09:47:01;;;;;;;6.60;4.65;;;;;;;;;;5036275;28;20053;-92
2022/08/15 09:50:01;;;;;;;12.82;4.63;;;;;;;;;;5036791;28;20072;-90
2022/08/15 09:52:55;;;;;;;6.60;4.25;;;;;;;;;;5035409;28;20052;-94
2022/08/15 09:55:27;;;;;;;9.82;4.25;;;;;;;;;;5034770;28;20077;-92
2022/08/15 09:57:58;;;;;;;7.47;4.20;;;;;;;;;;5035757;28;20486;-93
2022/08/15 10:00:32;;;;;;;8.18;4.57;;;;;;;;;;5035798;28;20513;-92
2022/08/15 10:03:05;;;;;;;4.72;3.85;;;;;;;;;;5035313;28;20060;-88
2022/08/15 10:05:42;;;;;;;7.28;4.40;;;;;;;;;;5036077;28;20049;-91
2022/08/15 10:08:13;;;;;;;5.07;4.10;;;;;;;;;;5035034;28;20203;-90
2022/08/15 10:11:08;;;;;;;6.43;5.03;;;;;;;;;;5037899;28;20053;-93
2022/08/15 10:13:38;;;;;;;4.63;4.20;;;;;;;;;;5035726;28;20459;-92
2022/08/15 10:16:29;;;;;;;8.32;5.03;;;;;;;;;;5035584;28;20060;-92
2022/08/15 10:18:57;;;;;;;5.10;4.63;;;;;;;;;;5035044;28;20080;-91
2022/08/15 10:21:32;;;;;;;7.00;4.40;;;;;;;;;;5035445;28;20136;-93
2022/08/15 10:23:59;;;;;;;5.93;4.22;;;;;;;;;;5037265;28;20072;-93
2022/08/15 10:26:34;;;;;;;9.40;4.20;;;;;;;;;;5035819;28;20049;-90
2022/08/15 10:29:08;;;;;;;14.68;5.18;;;;;;;;;;5036079;28;20141;-95
2022/08/15 10:31:41;;;;;;;5.20;4.07;;;;;;;;;;5035304;28;20144;-89
2022/08/15 10:34:35;;;;;;;9.35;4.40;;;;;;;;;;5037129;28;20053;-93
2022/08/15 10:37:09;;;;;;;6.85;4.28;;;;;;;;;;5037824;28;20478;-92
2022/08/15 10:39:36;;;;;;;6.80;4.03;;;;;;;;;;5037901;28;20548;-93
2022/08/15 10:42:21;;;;;;;8.43;4.32;;;;;;;;;;5037679;28;20053;-92
2022/08/15 10:44:57;;;;;;;6.45;3.95;;;;;;;;;;5040628;28;20063;-90
2022/08/15 10:47:37;;;;;;;4.38;4.07;;;;;;;;;;5038884;28;20061;-94
2022/08/15 10:50:23;;;;;;;7.60;4.10;;;;;;;;;;5036760;28;20049;-95
2022/08/15 10:53:05;;;;;;;4.07;3.72;;;;;;;;;;5036346;28;20064;-91
2022/08/15 10:55:36;;;;;;;4.10;3.80;;;;;;;;;;5036073;28;20132;-93
2022/08/15 10:58:26;;;;;;;4.28;3.78;;;;;;;;;;5038046;28;20053;-94
2022/08/15 11:01:06;;;;;;;5.35;3.75;;;;;;;;;;5035658;28;20045;-93
2022/08/15 11:03:44;;;;;;;5.82;3.92;;;;;;;;;;5034910;28;20061;-90
2022/08/15 11:06:37;;;;;;;9.38;3.58;;;;;;;;;;5034326;28;20048;-92
2022/08/15 11:09:10;;;;;;;7.57;3.65;;;;;;;;;;5034687;28;20068;-87
2022/08/15 11:11:38;;;;;;;5.18;3.40;;;;;;;;;;5034986;28;20465;-93
2022/08/15 11:14:11;;;;;;;3.78;3.47;;;;;;;;;;5036445;28;20076;-92
2022/08/15 11:16:56;;;;;;;6.88;3.55;;;;;;;;;;5039825;28;20060;-91
2022/08/15 11:19:33;;;;;;;5.45;3.35;;;;;;;;;;5034060;28;20060;-93
2022/08/15 11:22:28;;;;;;;5.65;3.72;;;;;;;;;;5032628;28;20077;-94
2022/08/15 11:25:00;;;;;;;6.57;3.53;;;;;;;;;;5033900;28;20046;-94
2022/08/15 11:28:00;;;;;;;3.42;2.88;;;;;;;;;;5035830;28;20094;-93
2022/08/15 11:31:00;;;;;;;4.25;3.35;;;;;;;;;;5036746;28;20048;-92
2022/08/15 11:33:54;;;;;;;5.55;2.83;;;;;;;;;;5034845;28;20044;-92
2022/08/15 11:36:49;;;;;;;3.08;2.80;;;;;;;;;;5036806;28;20099;-95
2022/08/15 11:39:42;;;;;;;4.15;3.05;;;;;;;;;;5039108;28;20406;-91
2022/08/15 11:42:36;;;;;;;5.00;2.83;;;;;;;;;;5034320;28;20104;-89
2022/08/15 11:45:33;;;;;;;4.20;3.03;;;;;;;;;;5037282;28;20084;-94
2022/08/15 11:48:26;;;;;;;6.72;3.13;;;;;;;;;;5037199;28;20044;-88
2022/08/15 11:51:26;;;;;;;5.47;3.28;;;;;;;;;;5042895;28;20075;-96
2022/08/15 11:54:21;;;;;;;7.78;3.03;;;;;;;;;;5038836;28;20088;-96
2022/08/15 11:57:20;;;;;;;9.20;3.05;;;;;;;;;;5036945;28;20119;-91
2022/08/15 12:00:22;;;;;;;5.03;2.60;;;;;;;;;;5037182;28;20108;-92
2022/08/15 12:03:21;;;;;;;18.50;5.85;;;;;;;;;;5036191;28;20102;-91
2022/08/15 12:06:12;;;;;;;8.50;3.40;;;;;;;;;;5035814;28;20060;-93
